Time;durP1;ratioP1;P1;durP2;ratioP2;P2;SDS_P1;SDS_P2;PMS_P1;PMS_P2;Temp;Humidity;BMP_temperature;BMP_pressure;BME280_temperature;BME280_humidity;BME280_pressure;Samples;Min_cycle;Max_cycle;Signal;HPM_P1;HPM_P2
2021/01/08 00:00:49;;;;;;;28.60;11.00;;;17.50;99.90;;;;;;5059128;28;21763;-73
2021/01/08 00:03:16;;;;;;;33.15;13.43;;;17.30;99.90;;;;;;5060104;28;20051;-69
2021/01/08 00:05:42;;;;;;;24.67;11.52;;;17.20;99.90;;;;;;5058401;28;20159;-70
2021/01/08 00:08:09;;;;;;;32.25;11.65;;;17.10;99.90;;;;;;5059738;28;20032;-69
2021/01/08 00:10:35;;;;;;;25.98;10.77;;;17.00;99.90;;;;;;5060405;28;20089;-71
2021/01/08 00:13:02;;;;;;;28.10;11.77;;;16.80;99.90;;;;;;5059725;28;20059;-71
2021/01/08 00:15:29;;;;;;;23.48;12.90;;;16.70;99.90;;;;;;5060707;28;20326;-72
2021/01/08 00:17:55;;;;;;;23.52;12.45;;;16.60;99.90;;;;;;5058949;28;20035;-71
2021/01/08 00:20:22;;;;;;;28.08;12.10;;;16.40;99.90;;;;;;5059316;28;20040;-71
2021/01/08 00:22:49;;;;;;;35.35;16.00;;;16.20;99.90;;;;;;5059101;28;20063;-71
2021/01/08 00:25:15;;;;;;;29.38;16.02;;;15.90;99.90;;;;;;5061487;28;20041;-70
2021/01/08 00:27:42;;;;;;;30.95;16.55;;;15.70;99.90;;;;;;5059107;28;20044;-71
2021/01/08 00:30:09;;;;;;;22.23;13.43;;;15.40;99.90;;;;;;5060428;28;20033;-69
2021/01/08 00:32:36;;;;;;;31.00;14.43;;;15.40;99.90;;;;;;5058385;28;20110;-70
2021/01/08 00:35:04;;;;;;;25.73;17.63;;;15.20;99.90;;;;;;5056767;28;20118;-70
2021/01/08 00:37:30;;;;;;;25.60;15.65;;;15.10;99.90;;;;;;5059791;28;20021;-71
2021/01/08 00:39:57;;;;;;;23.05;15.88;;;14.90;99.90;;;;;;5060041;28;20024;-71
2021/01/08 00:42:23;;;;;;;25.65;15.82;;;14.70;99.90;;;;;;5055967;28;20025;-70
2021/01/08 00:47:25;;;;;;;23.63;16.25;;;14.70;99.90;;;;;;5043022;22;20077;-70
2021/01/08 00:49:52;;;;;;;34.95;20.00;;;14.60;99.90;;;;;;5036464;28;20037;-69
2021/01/08 00:52:19;;;;;;;39.25;19.83;;;14.30;99.90;;;;;;5038024;28;20043;-69
2021/01/08 00:54:48;;;;;;;37.28;21.77;;;14.20;99.90;;;;;;5037281;28;20148;-70
2021/01/08 00:57:15;;;;;;;35.35;19.42;;;14.10;99.90;;;;;;5037867;28;20025;-71
2021/01/08 00:59:41;;;;;;;37.88;22.63;;;14.10;99.90;;;;;;5036098;28;20056;-70
2021/01/08 01:02:08;;;;;;;36.95;21.13;;;14.00;99.90;;;;;;5037873;28;20033;-70
2021/01/08 01:04:35;;;;;;;36.05;19.50;;;14.10;99.90;;;;;;5038283;28;20032;-71
2021/01/08 01:07:02;;;;;;;35.45;19.38;;;14.10;99.90;;;;;;5035691;28;20040;-71
2021/01/08 01:09:28;;;;;;;32.80;21.50;;;13.90;99.90;;;;;;5035984;28;20123;-71
2021/01/08 01:11:55;;;;;;;37.60;21.67;;;13.70;99.90;;;;;;5035977;28;20342;-68
2021/01/08 01:14:21;;;;;;;36.35;19.92;;;13.60;99.90;;;;;;5040987;28;20039;-71
2021/01/08 01:16:48;;;;;;;34.85;20.25;;;13.70;99.90;;;;;;5042192;28;20039;-72
2021/01/08 01:19:15;;;;;;;35.50;17.40;;;13.80;99.90;;;;;;5042472;28;20037;-72
2021/01/08 01:21:41;;;;;;;30.55;19.38;;;13.90;99.90;;;;;;5042776;28;20036;-71
2021/01/08 01:24:08;;;;;;;37.80;18.98;;;14.00;99.90;;;;;;5047258;28;20065;-73
2021/01/08 01:26:35;;;;;;;29.98;17.58;;;14.00;99.90;;;;;;5042498;28;20152;-71
2021/01/08 01:29:02;;;;;;;35.03;20.67;;;14.10;99.90;;;;;;5041586;28;20071;-72
2021/01/08 01:31:28;;;;;;;34.40;17.95;;;14.10;99.90;;;;;;5042330;28;20043;-71
2021/01/08 01:33:55;;;;;;;37.70;19.08;;;14.10;99.90;;;;;;5040245;28;20037;-71
2021/01/08 01:36:22;;;;;;;30.92;18.58;;;14.10;99.90;;;;;;5040836;28;20052;-71
2021/01/08 01:38:48;;;;;;;27.67;16.85;;;14.10;99.90;;;;;;5044447;28;20048;-70
2021/01/08 01:41:15;;;;;;;34.15;17.73;;;13.90;99.90;;;;;;5058123;28;20029;-70
2021/01/08 01:43:41;;;;;;;36.53;19.13;;;13.70;99.90;;;;;;5061372;28;20024;-68
2021/01/08 01:46:14;;;;;;;25.88;17.23;;;13.60;99.90;;;;;;5058108;28;20045;-69
2021/01/08 01:48:41;;;;;;;33.53;18.02;;;13.50;99.90;;;;;;5060015;28;20095;-71
2021/01/08 01:51:08;;;;;;;34.13;16.63;;;13.50;99.90;;;;;;5060776;28;20084;-68
2021/01/08 01:53:34;;;;;;;30.38;18.30;;;13.40;99.90;;;;;;5059406;28;20333;-68
2021/01/08 01:56:01;;;;;;;41.83;19.88;;;13.30;99.90;;;;;;5060569;28;20025;-68
2021/01/08 01:58:28;;;;;;;48.70;25.30;;;13.40;99.90;;;;;;5058452;28;20112;-69
2021/01/08 02:00:54;;;;;;;48.22;21.33;;;13.50;99.90;;;;;;5061530;28;20082;-69
2021/01/08 02:03:25;;;;;;;40.88;19.17;;;13.40;99.90;;;;;;5059639;28;20050;-69
2021/01/08 02:05:58;;;;;;;59.80;25.20;;;13.20;99.90;;;;;;5059134;28;20395;-68
2021/01/08 02:08:27;;;;;;;47.45;22.88;;;13.20;99.90;;;;;;5060595;28;20074;-69
2021/01/08 02:11:05;;;;;;;;;;;13.30;99.90;;;;;;5565262;22;20053;-67
2021/01/08 02:13:47;;;;;;;61.60;21.77;;;13.10;99.90;;;;;;5060040;28;19926;-68
2021/01/08 02:16:16;;;;;;;68.90;28.85;;;13.20;99.90;;;;;;5055774;28;20040;-68
2021/01/08 02:18:45;;;;;;;65.47;25.10;;;13.20;99.90;;;;;;5058548;28;20074;-68
2021/01/08 02:22:07;;;;;;;67.30;25.45;;;13.30;99.90;;;;;;5058504;28;20449;-68
2021/01/08 02:24:41;;;;;;;69.40;24.13;;;13.30;99.90;;;;;;5028317;28;20048;-68
2021/01/08 02:27:08;;;;;;;59.20;25.23;;;13.20;99.90;;;;;;5060798;28;20044;-69
2021/01/08 02:29:35;;;;;;;70.90;23.55;;;12.90;99.90;;;;;;5060952;28;20128;-67
2021/01/08 02:32:02;;;;;;;63.45;24.30;;;12.80;99.90;;;;;;5061784;28;20399;-67
2021/01/08 02:34:29;;;;;;;55.20;23.77;;;13.00;99.90;;;;;;5061718;28;20078;-68
2021/01/08 02:36:57;;;;;;;60.88;24.10;;;12.90;99.90;;;;;;5060872;28;20317;-68
2021/01/08 02:39:23;;;;;;;65.00;27.02;;;12.80;99.90;;;;;;5060280;28;20637;-69
2021/01/08 02:41:53;;;;;;;77.90;30.83;;;12.70;99.90;;;;;;5057202;28;21796;-70
2021/01/08 02:44:22;;;;;;;61.42;25.15;;;12.80;99.90;;;;;;5059747;28;20024;-69
2021/01/08 02:46:49;;;;;;;74.30;28.05;;;12.80;99.90;;;;;;5048093;28;20043;-68
2021/01/08 02:49:15;;;;;;;64.90;27.52;;;12.60;99.90;;;;;;5056257;28;20114;-68
2021/01/08 02:51:42;;;;;;;66.82;27.27;;;12.60;99.90;;;;;;5055994;28;20036;-69
2021/01/08 02:54:10;;;;;;;58.72;27.30;;;12.70;99.90;;;;;;5056224;28;20021;-69
2021/01/08 02:56:45;;;;;;;72.85;28.15;;;12.50;99.90;;;;;;5049815;28;20398;-68
2021/01/08 02:59:13;;;;;;;79.07;27.83;;;12.40;99.90;;;;;;5054999;28;20060;-67
2021/01/08 03:01:40;;;;;;;80.13;28.90;;;12.50;99.90;;;;;;5055633;28;20028;-68
2021/01/08 03:04:07;;;;;;;74.03;28.30;;;12.60;99.90;;;;;;5056988;28;20123;-67
2021/01/08 03:06:34;;;;;;;63.40;23.95;;;12.50;99.90;;;;;;5060196;28;20111;-66
2021/01/08 03:09:02;;;;;;;54.10;23.27;;;12.30;99.90;;;;;;5058667;28;20319;-67
2021/01/08 03:11:30;;;;;;;76.43;25.13;;;12.20;99.90;;;;;;5058896;28;20041;-68
2021/01/08 03:13:57;;;;;;;55.15;23.15;;;12.10;99.90;;;;;;5058520;28;20105;-67
2021/01/08 03:16:23;;;;;;;62.35;23.83;;;12.00;99.90;;;;;;5059761;28;20036;-67
2021/01/08 03:18:50;;;;;;;57.53;24.42;;;12.10;99.90;;;;;;5059258;28;20299;-68
2021/01/08 03:21:17;;;;;;;68.43;28.55;;;12.10;99.90;;;;;;5060462;28;20044;-67
2021/01/08 03:23:43;;;;;;;65.45;25.90;;;11.90;99.90;;;;;;5059737;28;20108;-67
2021/01/08 03:26:10;;;;;;;62.83;24.85;;;12.00;99.90;;;;;;5057511;28;20164;-66
2021/01/08 03:28:37;;;;;;;50.40;24.05;;;12.10;99.90;;;;;;5059613;28;20587;-67
2021/01/08 03:31:04;;;;;;;65.63;27.02;;;12.20;99.90;;;;;;5059890;28;20276;-67
2021/01/08 03:33:30;;;;;;;53.78;25.92;;;12.10;99.90;;;;;;5055160;28;20055;-67
2021/01/08 03:35:57;;;;;;;62.28;27.70;;;12.20;99.90;;;;;;5057353;28;20025;-67
2021/01/08 03:38:24;;;;;;;66.65;29.83;;;12.30;99.90;;;;;;5056011;28;20044;-67
2021/01/08 03:40:50;;;;;;;76.53;34.53;;;12.30;99.90;;;;;;5056579;28;20154;-67
2021/01/08 03:43:17;;;;;;;68.85;28.15;;;12.30;99.90;;;;;;5055600;28;20029;-67
2021/01/08 03:45:44;;;;;;;58.65;27.20;;;12.30;99.90;;;;;;5057087;28;20032;-67
2021/01/08 03:48:10;;;;;;;68.53;31.05;;;12.20;99.90;;;;;;5056767;28;20025;-66
2021/01/08 03:50:38;;;;;;;66.78;28.52;;;12.30;99.90;;;;;;5057141;28;20119;-66
2021/01/08 03:53:05;;;;;;;54.83;27.20;;;12.30;99.90;;;;;;5056704;28;20028;-67
2021/01/08 03:55:32;;;;;;;69.05;27.30;;;12.20;99.90;;;;;;5056337;28;20085;-67
2021/01/08 03:58:00;;;;;;;59.88;29.30;;;12.10;99.90;;;;;;5055430;28;20054;-72
2021/01/08 04:00:26;;;;;;;60.38;27.63;;;12.10;99.90;;;;;;5056760;28;20091;-72
2021/01/08 04:02:53;;;;;;;47.78;26.05;;;12.10;99.90;;;;;;5058428;28;20021;-76
2021/01/08 04:05:20;;;;;;;55.42;25.70;;;12.00;99.90;;;;;;5056115;28;20024;-69
2021/01/08 04:07:46;;;;;;;65.05;28.02;;;11.90;99.90;;;;;;5056774;28;20044;-69
2021/01/08 04:10:13;;;;;;;62.42;28.08;;;11.70;99.90;;;;;;5055914;28;21373;-71
2021/01/08 04:12:40;;;;;;;66.32;27.83;;;11.60;99.90;;;;;;5054687;28;20041;-70
2021/01/08 04:15:07;;;;;;;65.75;30.83;;;11.60;99.90;;;;;;5050780;28;20036;-69
2021/01/08 04:17:33;;;;;;;57.20;27.75;;;11.60;99.90;;;;;;5055272;28;20108;-71
2021/01/08 04:20:00;;;;;;;67.13;31.00;;;11.50;99.90;;;;;;5056831;28;20041;-70
2021/01/08 04:22:27;;;;;;;69.72;32.83;;;11.30;99.90;;;;;;5057111;28;20020;-70
2021/01/08 04:24:53;;;;;;;72.93;33.58;;;11.20;99.90;;;;;;5055637;28;20029;-70
2021/01/08 04:27:20;;;;;;;65.10;31.50;;;11.30;99.90;;;;;;5056026;28;20025;-70
2021/01/08 04:29:47;;;;;;;61.78;31.63;;;11.40;99.90;;;;;;5057189;28;20067;-71
2021/01/08 04:32:13;;;;;;;71.45;34.25;;;11.30;99.90;;;;;;5053384;28;20039;-71
2021/01/08 04:34:40;;;;;;;67.95;30.30;;;11.30;99.90;;;;;;5056572;28;20036;-69
2021/01/08 04:37:07;;;;;;;76.85;32.80;;;11.30;99.90;;;;;;5055843;28;20056;-70
2021/01/08 04:39:33;;;;;;;59.53;30.67;;;11.10;99.90;;;;;;5055221;28;20028;-69
2021/01/08 04:42:01;;;;;;;70.85;32.42;;;11.00;99.90;;;;;;5055332;28;20025;-71
2021/01/08 04:44:28;;;;;;;83.85;34.22;;;10.90;99.90;;;;;;5056835;28;20512;-70
2021/01/08 04:46:54;;;;;;;89.18;37.47;;;10.80;99.90;;;;;;5053679;28;20110;-71
2021/01/08 04:49:21;;;;;;;87.63;36.10;;;10.80;99.90;;;;;;5051913;28;20028;-69
2021/01/08 04:51:48;;;;;;;88.35;39.63;;;10.90;99.90;;;;;;5055133;28;20424;-75
2021/01/08 04:54:16;;;;;;;88.10;39.75;;;10.90;99.90;;;;;;5057282;28;20040;-75
2021/01/08 04:56:49;;;;;;;80.93;36.75;;;10.90;99.90;;;;;;5057439;28;20048;-75
2021/01/08 04:59:15;;;;;;;97.75;40.50;;;10.90;99.90;;;;;;5057355;28;20433;-76
2021/01/08 05:01:42;;;;;;;95.22;39.97;;;10.90;99.90;;;;;;5058294;28;20032;-78
2021/01/08 05:04:10;;;;;;;114.10;40.15;;;10.90;99.90;;;;;;5058689;28;20021;-79
2021/01/08 05:06:36;;;;;;;113.82;41.75;;;10.80;99.90;;;;;;5058361;28;20545;-71
2021/01/08 05:09:04;;;;;;;91.47;38.13;;;10.80;99.90;;;;;;5057280;28;20127;-74
2021/01/08 05:11:31;;;;;;;106.35;43.65;;;10.80;99.90;;;;;;5057192;28;20670;-74
2021/01/08 05:14:00;;;;;;;99.10;40.40;;;10.70;99.90;;;;;;5057563;28;20399;-75
2021/01/08 05:16:27;;;;;;;;;;;10.70;99.90;;;;;;5057488;28;20299;-74
2021/01/08 05:18:55;;;;;;;128.25;46.60;;;10.80;99.90;;;;;;5058064;28;19959;-75
2021/01/08 05:21:25;;;;;;;97.63;40.37;;;11.00;99.90;;;;;;5058313;28;20108;-74
2021/01/08 05:23:53;;;;;;;100.50;44.13;;;11.00;99.90;;;;;;5057662;28;20021;-75
2021/01/08 05:26:21;;;;;;;115.17;46.30;;;10.90;99.90;;;;;;5055148;28;20450;-74
2021/01/08 05:29:05;;;;;;;112.35;43.70;;;10.90;99.90;;;;;;5055702;28;20021;-72
2021/01/08 05:31:33;;;;;;;112.28;45.60;;;10.70;99.90;;;;;;5055792;28;20036;-70
2021/01/08 05:34:01;;;;;;;109.30;46.70;;;10.70;99.90;;;;;;5056979;28;20165;-69
2021/01/08 05:36:28;;;;;;;125.25;46.40;;;10.60;99.90;;;;;;5054595;28;20033;-69
2021/01/08 05:38:59;;;;;;;115.45;46.92;;;10.60;99.90;;;;;;5056912;28;20070;-70
2021/01/08 05:41:27;;;;;;;122.00;48.75;;;10.60;99.90;;;;;;5055557;28;20076;-71
2021/01/08 05:43:55;;;;;;;160.25;51.92;;;10.60;99.90;;;;;;5057943;28;20343;-70
2021/01/08 05:46:34;;;;;;;126.10;48.37;;;10.70;99.90;;;;;;5056503;28;20111;-71
2021/01/08 05:49:08;;;;;;;112.38;43.42;;;10.80;99.90;;;;;;5058152;28;20491;-70
2021/01/08 05:51:39;;;;;;;96.90;39.80;;;10.80;99.90;;;;;;5055927;28;20445;-70
2021/01/08 05:54:06;;;;;;;103.07;41.50;;;10.70;99.90;;;;;;5057578;28;20041;-70
2021/01/08 05:56:35;;;;;;;118.13;42.10;;;10.80;99.90;;;;;;5055009;28;20029;-69
2021/01/08 05:59:04;;;;;;;116.20;44.08;;;10.80;99.90;;;;;;5063006;28;20433;-70
2021/01/08 06:01:32;;;;;;;238.65;64.47;;;11.00;99.90;;;;;;5056791;28;20047;-69
2021/01/08 06:04:01;;;;;;;263.08;63.40;;;11.10;99.90;;;;;;5058607;28;20331;-68
2021/01/08 06:06:37;;;;;;;;;;;11.20;99.90;;;;;;5059945;28;20438;-68
2021/01/08 06:09:04;;;;;;;318.67;67.82;;;11.20;99.90;;;;;;5060905;28;20006;-69
2021/01/08 06:11:31;;;;;;;722.30;83.28;;;11.30;99.90;;;;;;5059731;28;20043;-69
2021/01/08 06:14:02;;;;;;;522.58;72.75;;;11.30;99.90;;;;;;5059545;28;20052;-68
2021/01/08 06:16:39;;;;;;;497.63;64.88;;;11.30;99.90;;;;;;5060405;28;20779;-68
2021/01/08 06:19:07;;;;;;;305.83;63.53;;;11.30;99.90;;;;;;5061885;28;20051;-69
2021/01/08 06:21:44;;;;;;;813.72;103.47;;;11.30;99.90;;;;;;5060244;28;20090;-69
2021/01/08 06:24:23;;;;;;;396.52;57.03;;;11.40;99.90;;;;;;5060155;28;20078;-69
2021/01/08 06:26:50;;;;;;;163.00;45.13;;;11.40;99.90;;;;;;5057836;28;20024;-69
2021/01/08 06:29:21;;;;;;;317.70;42.88;;;11.50;99.90;;;;;;5059980;28;20039;-69
2021/01/08 06:31:57;;;;;;;887.97;78.35;;;11.50;99.90;;;;;;5058577;28;20390;-69
2021/01/08 06:34:30;;;;;;;607.03;65.13;;;11.50;99.90;;;;;;5061461;28;20123;-69
2021/01/08 06:37:03;;;;;;;785.85;66.30;;;11.60;99.90;;;;;;5060914;28;20021;-69
2021/01/08 06:39:37;;;;;;;236.07;41.65;;;11.50;99.90;;;;;;5059046;28;20021;-71
2021/01/08 06:42:05;;;;;;;410.85;50.15;;;11.30;99.90;;;;;;5042907;28;20394;-69
2021/01/08 06:44:32;;;;;;;297.15;42.53;;;11.30;99.90;;;;;;5059795;28;20060;-69
2021/01/08 06:47:03;;;;;;;188.10;34.55;;;11.30;99.90;;;;;;5059760;28;20059;-69
2021/01/08 06:49:38;;;;;;;129.93;40.97;;;11.30;99.90;;;;;;5060450;28;20032;-71
2021/01/08 06:52:05;;;;;;;183.43;39.20;;;11.10;99.90;;;;;;5057740;28;20135;-70
2021/01/08 06:54:40;;;;;;;154.20;41.05;;;10.80;99.90;;;;;;5058449;28;20040;-70
2021/01/08 06:57:17;;;;;;;122.28;35.92;;;10.80;99.90;;;;;;5058666;28;20037;-70
2021/01/08 07:00:04;;;;;;;191.98;39.55;;;10.60;99.90;;;;;;5059473;28;20115;-71
2021/01/08 07:02:33;;;;;;;135.80;37.42;;;10.60;99.90;;;;;;5058056;28;20091;-71
2021/01/08 07:05:01;;;;;;;108.82;33.75;;;10.70;99.90;;;;;;5059988;28;20119;-71
2021/01/08 07:07:30;;;;;;;109.20;34.10;;;10.70;99.90;;;;;;5056338;28;20036;-71
2021/01/08 07:09:58;;;;;;;152.20;36.03;;;10.60;99.90;;;;;;5059093;28;20288;-70
2021/01/08 07:12:26;;;;;;;361.63;44.92;;;10.60;99.90;;;;;;5059011;28;20319;-72
2021/01/08 07:14:53;;;;;;;241.75;34.80;;;10.60;99.90;;;;;;5058317;28;20098;-72
2021/01/08 07:17:33;;;;;;;295.98;42.42;;;10.60;99.90;;;;;;5057235;28;20291;-71
2021/01/08 07:20:05;;;;;;;390.15;34.60;;;10.50;99.90;;;;;;5057520;28;20108;-71
2021/01/08 07:22:41;;;;;;;382.77;34.25;;;10.40;99.90;;;;;;5057531;28;20043;-70
2021/01/08 07:25:12;;;;;;;349.25;40.05;;;10.30;99.90;;;;;;5058389;28;20093;-70
2021/01/08 07:27:43;;;;;;;651.40;56.15;;;10.20;99.90;;;;;;5054015;28;20079;-70
2021/01/08 07:30:11;;;;;;;492.95;44.08;;;10.20;99.90;;;;;;5056813;28;21301;-71
2021/01/08 07:32:42;;;;;;;1227.40;77.70;;;10.30;99.90;;;;;;5056066;28;20044;-70
2021/01/08 07:35:24;;;;;;;619.40;59.95;;;10.30;99.90;;;;;;5058976;28;20113;-70
2021/01/08 07:38:00;;;;;;;585.83;46.38;;;10.30;99.90;;;;;;5056745;28;20024;-70
2021/01/08 07:40:29;;;;;;;557.25;42.28;;;10.40;99.90;;;;;;5057390;28;20028;-70
2021/01/08 07:42:56;;;;;;;;;;;10.40;99.90;;;;;;5058974;28;20021;-70
2021/01/08 07:45:22;;;;;;;458.92;42.40;;;10.40;99.90;;;;;;5058355;28;19959;-73
2021/01/08 07:47:49;;;;;;;360.67;35.72;;;10.20;99.90;;;;;;5058233;28;20115;-70
2021/01/08 07:50:17;;;;;;;195.93;23.63;;;10.30;99.90;;;;;;5059310;28;20033;-72
2021/01/08 07:52:45;;;;;;;137.05;25.25;;;10.10;99.90;;;;;;5057425;28;20029;-70
2021/01/08 07:55:45;;;;;;;134.38;24.45;;;10.10;99.90;;;;;;5058641;28;20024;-72
2021/01/08 07:58:12;;;;;;;236.25;30.55;;;10.10;99.90;;;;;;5051523;28;20381;-71
2021/01/08 08:00:41;;;;;;;154.88;31.95;;;10.00;99.90;;;;;;5056798;28;20025;-71
2021/01/08 08:03:13;;;;;;;87.88;27.25;;;10.10;99.90;;;;;;5058864;28;20044;-71
2021/01/08 08:05:44;;;;;;;74.13;23.88;;;10.10;99.90;;;;;;5058950;28;20039;-71
2021/01/08 08:08:11;;;;;;;111.93;29.15;;;10.00;99.90;;;;;;5057529;28;20124;-71
2021/01/08 08:10:38;;;;;;;204.32;29.55;;;10.10;99.90;;;;;;5059474;28;20447;-71
2021/01/08 08:13:04;;;;;;;609.70;52.85;;;10.10;99.90;;;;;;5057698;28;20044;-71
2021/01/08 08:15:31;;;;;;;107.07;30.48;;;10.10;99.90;;;;;;5056760;28;20032;-71
2021/01/08 08:18:00;;;;;;;122.80;33.08;;;10.00;99.90;;;;;;5058468;28;20440;-70
2021/01/08 08:20:26;;;;;;;155.82;34.10;;;9.70;99.90;;;;;;5053540;28;20492;-71
2021/01/08 08:22:53;;;;;;;203.57;37.78;;;9.50;99.90;;;;;;5056941;28;20118;-71
2021/01/08 08:25:30;;;;;;;122.47;25.40;;;9.30;99.90;;;;;;5057077;28;20579;-71
2021/01/08 08:27:59;;;;;;;223.48;32.90;;;9.30;99.90;;;;;;5057510;28;20086;-71
2021/01/08 08:30:26;;;;;;;;;;;9.40;99.90;;;;;;5057870;28;20032;-72
2021/01/08 08:32:53;;;;;;;157.50;26.52;;;9.40;99.90;;;;;;5056999;28;19977;-71
2021/01/08 08:35:20;;;;;;;117.55;22.50;;;9.40;99.90;;;;;;5057128;28;20039;-72
2021/01/08 08:37:49;;;;;;;211.75;28.13;;;9.50;99.90;;;;;;5059254;28;20361;-72
2021/01/08 08:40:16;;;;;;;253.15;31.83;;;9.50;99.90;;;;;;5057369;28;20036;-71
2021/01/08 08:42:43;;;;;;;259.10;34.97;;;9.60;99.90;;;;;;5056924;28;20115;-73
2021/01/08 08:45:20;;;;;;;218.13;32.63;;;9.60;99.90;;;;;;5041791;28;20479;-72
2021/01/08 08:47:49;;;;;;;317.67;33.45;;;9.70;99.90;;;;;;5057629;28;20032;-73
2021/01/08 08:50:17;;;;;;;227.55;28.77;;;9.60;99.90;;;;;;5057406;28;20089;-73
2021/01/08 08:52:45;;;;;;;404.98;33.42;;;9.50;99.90;;;;;;5039184;28;20032;-74
2021/01/08 08:55:44;;;;;;;107.63;24.15;;;9.50;99.90;;;;;;5056137;28;20116;-74
2021/01/08 08:58:13;;;;;;;80.10;25.98;;;9.40;99.90;;;;;;5024729;28;20181;-73
2021/01/08 09:00:42;;;;;;;448.17;39.58;;;9.20;99.90;;;;;;5056277;28;20028;-74
2021/01/08 09:03:19;;;;;;;119.53;23.30;;;9.30;99.90;;;;;;5055885;28;20471;-73
2021/01/08 09:05:50;;;;;;;110.47;25.35;;;9.20;99.90;;;;;;5057340;28;20047;-72
2021/01/08 09:08:27;;;;;;;90.03;24.33;;;9.20;99.90;;;;;;5057382;28;20051;-72
2021/01/08 09:11:13;;;;;;;150.85;27.98;;;9.20;99.90;;;;;;5055813;28;20045;-73
2021/01/08 09:14:02;;;;;;;302.27;31.30;;;9.20;99.90;;;;;;5058235;28;20579;-72
2021/01/08 09:16:44;;;;;;;114.13;24.83;;;9.20;99.90;;;;;;5057540;28;20044;-73
2021/01/08 09:19:20;;;;;;;59.55;22.60;;;9.10;99.90;;;;;;5054603;28;20698;-72
2021/01/08 09:21:51;;;;;;;52.47;21.65;;;8.90;99.90;;;;;;5058681;28;20036;-74
2021/01/08 09:24:30;;;;;;;49.55;21.35;;;8.80;99.90;;;;;;5056076;28;20032;-71
2021/01/08 09:27:07;;;;;;;53.60;22.65;;;8.80;99.90;;;;;;5055614;28;20048;-71
2021/01/08 09:29:35;;;;;;;52.08;21.65;;;8.90;99.90;;;;;;5057332;28;20048;-73
2021/01/08 09:32:04;;;;;;;54.07;21.97;;;8.90;99.90;;;;;;5057039;28;20104;-71
2021/01/08 09:34:32;;;;;;;43.15;17.90;;;8.70;99.90;;;;;;5059641;28;20063;-70
2021/01/08 09:37:11;;;;;;;40.92;19.88;;;8.70;99.90;;;;;;5061873;28;20052;-71
2021/01/08 09:39:39;;;;;;;;;;;8.80;99.90;;;;;;5060457;28;20029;-71
2021/01/08 09:42:06;;;;;;;44.17;19.38;;;8.80;99.90;;;;;;5060336;28;20007;-71
2021/01/08 09:44:40;;;;;;;42.75;20.73;;;8.80;99.90;;;;;;5061532;28;20032;-71
2021/01/08 09:47:14;;;;;;;34.83;18.50;;;8.70;99.90;;;;;;5059971;28;20032;-70
2021/01/08 09:49:50;;;;;;;42.35;19.20;;;8.70;99.90;;;;;;5060919;28;20458;-71
2021/01/08 09:52:17;;;;;;;40.95;20.33;;;8.70;99.90;;;;;;5060728;28;20040;-70
2021/01/08 09:54:45;;;;;;;33.63;18.05;;;8.70;99.90;;;;;;5061494;28;20067;-70
2021/01/08 09:57:34;;;;;;;39.17;19.08;;;8.60;99.90;;;;;;5059886;28;20090;-70
2021/01/08 10:00:04;;;;;;;39.78;17.90;;;8.60;99.90;;;;;;5061062;28;20025;-69
2021/01/08 10:02:44;;;;;;;32.33;17.77;;;8.40;99.90;;;;;;5058383;28;20402;-71
2021/01/08 10:05:20;;;;;;;41.40;21.15;;;8.30;99.90;;;;;;5058567;28;20106;-70
2021/01/08 10:07:48;;;;;;;45.38;22.40;;;8.30;99.90;;;;;;5060073;28;20628;-70
2021/01/08 10:10:27;;;;;;;43.85;21.90;;;8.40;99.90;;;;;;5061169;28;20029;-71
2021/01/08 10:12:56;;;;;;;49.35;22.13;;;8.40;99.90;;;;;;5059813;28;20410;-71
2021/01/08 10:15:47;;;;;;;42.72;20.73;;;8.50;99.90;;;;;;5060908;28;20064;-70
2021/01/08 10:18:36;;;;;;;42.50;21.77;;;8.40;99.90;;;;;;5059174;28;20020;-69
2021/01/08 10:21:09;;;;;;;46.50;23.42;;;8.30;99.90;;;;;;5059364;28;20035;-70
2021/01/08 10:23:45;;;;;;;39.25;21.17;;;8.20;99.90;;;;;;5059164;28;20031;-70
2021/01/08 10:26:19;;;;;;;37.85;20.38;;;8.20;99.90;;;;;;5061259;28;20403;-69
2021/01/08 10:28:54;;;;;;;39.03;21.52;;;8.10;99.90;;;;;;5058673;28;20039;-71
2021/01/08 10:31:22;;;;;;;44.20;22.35;;;8.00;99.90;;;;;;5060614;28;20140;-71
2021/01/08 10:33:49;;;;;;;33.63;16.05;;;7.90;99.90;;;;;;5057320;28;20028;-69
2021/01/08 10:36:16;;;;;;;39.50;23.45;;;7.80;99.90;;;;;;5059079;28;20464;-71
2021/01/08 10:38:43;;;;;;;44.03;21.45;;;7.80;99.90;;;;;;5059135;28;20060;-70
2021/01/08 10:41:15;;;;;;;45.20;23.30;;;7.80;99.90;;;;;;5058320;28;20025;-70
2021/01/08 10:43:42;;;;;;;43.65;22.77;;;7.70;99.90;;;;;;5058031;28;20365;-70
2021/01/08 10:46:08;;;;;;;36.22;21.27;;;7.80;99.90;;;;;;5059348;28;20028;-70
2021/01/08 10:48:35;;;;;;;32.42;18.85;;;7.80;99.90;;;;;;5059960;28;20033;-70
2021/01/08 10:51:02;;;;;;;37.75;18.88;;;7.80;99.90;;;;;;5060053;28;20032;-70
2021/01/08 10:53:28;;;;;;;40.78;21.08;;;7.80;99.90;;;;;;5056130;28;20033;-70
2021/01/08 10:55:55;;;;;;;36.03;19.67;;;7.70;99.90;;;;;;5059755;28;20092;-70
2021/01/08 10:58:22;;;;;;;33.40;19.35;;;7.70;99.90;;;;;;5057140;28;20024;-70
2021/01/08 11:00:48;;;;;;;34.22;18.48;;;7.80;99.90;;;;;;5058495;28;20126;-70
2021/01/08 11:03:15;;;;;;;34.78;18.40;;;7.80;99.90;;;;;;5057060;28;20056;-70
2021/01/08 11:05:43;;;;;;;28.05;18.83;;;7.90;99.90;;;;;;5038593;28;20089;-70
2021/01/08 11:08:10;;;;;;;31.23;18.80;;;8.00;99.90;;;;;;5057945;28;20044;-71
2021/01/08 11:10:40;;;;;;;31.38;19.10;;;8.00;99.90;;;;;;5057658;28;20319;-70
2021/01/08 11:13:07;;;;;;;38.20;19.63;;;8.00;99.90;;;;;;5059721;28;20037;-69
2021/01/08 11:15:34;;;;;;;36.20;19.13;;;7.80;99.90;;;;;;5043185;28;20375;-70
2021/01/08 11:18:01;;;;;;;34.13;19.83;;;7.80;99.90;;;;;;5058739;28;20033;-70
2021/01/08 11:20:27;;;;;;;30.13;18.45;;;7.60;99.90;;;;;;5060195;28;20114;-70
2021/01/08 11:22:58;;;;;;;37.30;19.40;;;7.50;99.90;;;;;;5058154;28;20526;-70
2021/01/08 11:25:25;;;;;;;44.40;20.73;;;7.40;99.90;;;;;;5057725;28;20033;-71
2021/01/08 11:27:51;;;;;;;32.72;19.98;;;7.40;99.90;;;;;;5061189;28;20028;-70
2021/01/08 11:30:19;;;;;;;35.30;20.25;;;7.30;99.90;;;;;;5040990;28;20028;-70
2021/01/08 11:32:45;;;;;;;35.63;21.13;;;7.40;99.90;;;;;;5042949;28;20038;-71
2021/01/08 11:35:12;;;;;;;28.88;18.85;;;7.40;99.90;;;;;;5060890;28;20024;-71
2021/01/08 11:37:39;;;;;;;43.60;21.92;;;7.50;99.90;;;;;;5058109;28;20029;-71
2021/01/08 11:40:06;;;;;;;31.40;17.73;;;7.50;99.90;;;;;;5058845;28;20035;-70
2021/01/08 11:42:33;;;;;;;35.65;19.35;;;7.50;99.90;;;;;;5058958;28;20111;-71
2021/01/08 11:45:00;;;;;;;39.53;19.00;;;7.40;99.90;;;;;;5059208;28;20032;-70
2021/01/08 11:47:27;;;;;;;38.58;20.45;;;7.30;99.90;;;;;;5059497;28;20063;-70
2021/01/08 11:49:54;;;;;;;33.65;18.65;;;7.20;99.90;;;;;;5060600;28;20032;-70
2021/01/08 11:52:20;;;;;;;33.95;19.17;;;7.30;99.90;;;;;;5057250;28;20153;-70
2021/01/08 11:54:47;;;;;;;37.08;20.63;;;7.40;99.90;;;;;;5056441;28;20162;-70
2021/01/08 11:57:14;;;;;;;35.13;19.77;;;7.40;99.90;;;;;;5058074;28;20045;-70
2021/01/08 11:59:40;;;;;;;35.47;20.17;;;7.40;99.90;;;;;;5058608;28;20063;-69
2021/01/08 12:02:07;;;;;;;42.60;18.95;;;7.40;99.90;;;;;;5057217;28;20037;-69
2021/01/08 12:04:34;;;;;;;41.63;19.50;;;7.30;99.90;;;;;;5059600;28;20028;-70
2021/01/08 12:07:02;;;;;;;40.10;20.13;;;7.20;99.90;;;;;;5058285;28;20029;-72
2021/01/08 12:09:30;;;;;;;32.63;18.55;;;7.20;99.90;;;;;;5059683;28;20067;-71
2021/01/08 12:12:01;;;;;;;42.33;20.83;;;7.20;99.90;;;;;;5057448;28;20089;-72
2021/01/08 12:14:29;;;;;;;55.83;27.35;;;7.40;99.90;;;;;;5059702;28;20044;-71
2021/01/08 12:17:02;;;;;;;49.30;23.85;;;7.50;99.90;;;;;;5058848;28;20024;-70
2021/01/08 12:19:28;;;;;;;45.20;21.58;;;7.60;99.90;;;;;;5058069;28;20033;-76
2021/01/08 12:21:55;;;;;;;41.55;22.52;;;7.50;99.90;;;;;;5058365;28;20108;-68
2021/01/08 12:24:21;;;;;;;47.10;23.25;;;7.50;99.90;;;;;;5058807;28;20078;-69
2021/01/08 12:26:55;;;;;;;44.67;24.33;;;7.60;99.90;;;;;;5059570;28;20052;-69
2021/01/08 12:29:23;;;;;;;46.53;22.52;;;7.70;99.90;;;;;;5059130;28;20039;-69
2021/01/08 12:31:50;;;;;;;46.88;24.95;;;7.70;99.90;;;;;;5058724;28;20029;-69
2021/01/08 12:34:16;;;;;;;46.45;21.73;;;7.70;99.90;;;;;;5057716;28;20174;-68
2021/01/08 12:36:45;;;;;;;39.03;21.00;;;7.70;99.90;;;;;;5059181;28;20035;-70
2021/01/08 12:39:11;;;;;;;52.00;23.33;;;7.80;99.90;;;;;;5058574;28;20341;-70
2021/01/08 12:41:38;;;;;;;44.78;22.50;;;7.80;99.90;;;;;;5058103;28;20078;-70